Overstreet, Florida
Current Conditions -  °F | °C
As of 9:53 PM on Saturday 20 Dec 2014 (Local Time) from KAAF Reporting Station
Light Rain Light Rain  
Wind Chill: 58°   Ceiling: 2100
Heat Index: 58°   Visibility: 5mi
Dew Point: 54°   Wind: 10mph
Humidity: 87%   Direction: 40°NE
Pressure: 30.09"   Gusts: NA
Location:  29.8451°N, 85.2061°W
Report Text: KAAF 210253Z AUTO 04009KT 5SM -RA BR OVC021 14/12 A3009 RMK AO2 RAB01 SLP188 P0001 60001 T01440122 51008 TSNO
Loading
Personal Weather Stations






























Interactive Weather Map New forecast layout! Learn more

10-Day Weather Forecast

Advertisements
Track Severe Weather on mobile